• Join FlightAware (Why Join?)
  • Login
  • US Flag 
08:36PM EDT


 

Airport Tracker/Info


-or-


 

Live Flight TrackerFlight Track Log ✈ AKX1768 ✈ 28-Apr-2012 ✈ ROIG / ISG - ROAH / OKA

Flight Track Log - Related Links

Times and Time Zones

All times are in EDT time to prevent confusion due to time zone crossing. See the AKX1768 flight status page for this flight to view local times or setup timezone preferences in your user account.

Time Position Orientation Groundspeed Altitude Reporting Facility
EDT Latitude Longitude Course Direction KTS MPH feet Rate Location/Type
11:41PM 24.3588 124.2128 59° Northeast  Level Estimated
11:42PM 24.4160 124.3159 59° Northeast  Level Estimated
11:43PM 24.4731 124.4191 59° Northeast  Level Estimated
11:44PM 24.5301 124.5225 59° Northeast  Level Estimated
11:45PM 24.5870 124.6259 59° Northeast  Level Estimated
11:46PM 24.6439 124.7294 59° Northeast  Level Estimated
11:47PM 24.7007 124.8330 59° Northeast  Level Estimated
11:48PM 24.7575 124.9368 59° Northeast  Level Estimated
11:49PM 24.8141 125.0406 59° Northeast  Level Estimated
11:50PM 24.8707 125.1445 59° Northeast  Level Estimated
11:51PM 24.9272 125.2485 59° Northeast  Level Estimated
11:52PM 24.9837 125.3525 59° Northeast  Level Estimated
11:53PM 25.0401 125.4567 59° Northeast  Level Estimated
11:54PM 25.0964 125.5610 59° Northeast  Level Estimated
11:55PM 25.1526 125.6654 59° Northeast  Level Estimated
11:56PM 25.2087 125.7699 59° Northeast  Level Estimated
11:57PM 25.2648 125.8744 59° Northeast  Level Estimated
11:58PM 25.3208 125.9791 59° Northeast  Level Estimated
11:59PM 25.3768 126.0839 59° Northeast  Level Estimated
12:00AM 25.4326 126.1887 59° Northeast  Level Estimated
12:01AM 25.4884 126.2937 60° Northeast  Level Estimated
12:02AM 25.5441 126.3988 60° Northeast  Level Estimated
12:03AM 25.5998 126.5039 60° Northeast  Level Estimated
12:04AM 25.6553 126.6092 60° Northeast  Level Estimated
12:05AM 25.7108 126.7145 60° Northeast  Level Estimated
12:06AM 25.7662 126.8199 60° Northeast  Level Estimated
12:07AM 25.8216 126.9255 60° Northeast  Level Estimated
12:08AM 25.8768 127.0311 60° Northeast  Level Estimated
12:09AM 25.9320 127.1369 60° Northeast  Level Estimated
12:10AM 25.9871 127.2427 60° Northeast  Level Estimated
12:11AM 26.0421 127.3487 60° Northeast  Level Estimated
12:12AM 26.0971 127.4547 60° Northeast  Level Estimated
12:13AM 26.1520 127.5609 60° Northeast  Level Estimated
12:14AM 26.2068 127.6671 240° Southwest  Level Estimated
12:15AM 26.1520 127.5609 60° Northeast  Level Estimated
12:16AM 26.2068 127.6671 240° Southwest  Level Estimated
12:17AM 26.1520 127.5609 60° Northeast  Level Estimated
12:18AM 26.2068 127.6671 240° Southwest  Level Estimated
12:19AM 26.1520 127.5609 60° Northeast  Level Estimated
12:20AM 26.2068 127.6671 240° Southwest  Level Estimated
12:21AM 26.1520 127.5609 60° Northeast  Level Estimated
12:22AM 26.2068 127.6671 240° Southwest  Level Estimated
12:23AM 26.1520 127.5609 60° Northeast  Level Estimated
12:24AM 26.2068 127.6671 240° Southwest  Level Estimated
12:25AM 26.1520 127.5609 60° Northeast  Level Estimated
12:26AM 26.2068 127.6671 240° Southwest  Level Estimated
12:27AM 26.1520 127.5609 60° Northeast  Level Estimated
12:28AM 26.2068 127.6671 240° Southwest  Level Estimated
12:29AM 26.1520 127.5609 240° Southwest  Level Estimated